createdAt,value
2023-01-10T00:00:02.131Z,1
2023-01-10T00:05:01.660Z,0
2023-01-10T00:10:02.133Z,1
2023-01-10T00:15:01.698Z,1
2023-01-10T00:20:02.577Z,1
2023-01-10T00:25:02.005Z,1
2023-01-10T00:30:01.422Z,1
2023-01-10T00:35:02.247Z,1
2023-01-10T00:40:01.812Z,1
2023-01-10T00:45:02.361Z,1
2023-01-10T00:50:02.141Z,1
2023-01-10T00:55:01.532Z,0
2023-01-10T01:00:01.939Z,0
2023-01-10T01:05:02.739Z,1
2023-01-10T01:10:02.149Z,129
2023-01-10T01:15:01.646Z,155
2023-01-10T01:20:02.073Z,307
2023-01-10T01:25:01.452Z,223
2023-01-10T01:30:01.836Z,134
2023-01-10T01:35:02.640Z,321
2023-01-10T01:40:02.064Z,137
2023-01-10T01:45:01.884Z,133
2023-01-10T01:50:02.237Z,140
2023-01-10T01:55:01.625Z,132
2023-01-10T02:00:02.069Z,137
2023-01-10T02:05:01.616Z,133
2023-01-10T02:10:02.039Z,2
2023-01-10T02:15:01.437Z,1
2023-01-10T02:20:01.922Z,1
2023-01-10T02:25:02.714Z,1
2023-01-10T02:30:02.088Z,2
2023-01-10T02:35:01.496Z,1
2023-01-10T02:40:01.908Z,1
2023-01-10T02:45:02.324Z,1
2023-01-10T02:50:01.706Z,2
2023-01-10T02:55:02.073Z,1
2023-01-10T03:00:01.913Z,2
2023-01-10T03:05:02.393Z,1
2023-01-10T03:10:01.859Z,4
2023-01-10T03:15:02.261Z,32
2023-01-10T03:20:01.734Z,6
2023-01-10T03:25:02.092Z,38
2023-01-10T03:30:01.450Z,24
2023-01-10T03:35:02.234Z,6
2023-01-10T03:40:01.633Z,38
2023-01-10T03:45:02.459Z,16
2023-01-10T03:50:02.260Z,10
2023-01-10T03:55:01.643Z,60
2023-01-10T04:00:02.035Z,37
2023-01-10T04:05:01.534Z,9
2023-01-10T04:10:02.056Z,1
2023-01-10T04:15:01.847Z,1
2023-01-10T04:20:02.282Z,2
2023-01-10T04:25:01.764Z,2
2023-01-10T04:30:02.162Z,1
2023-01-10T04:35:01.721Z,2
2023-01-10T04:40:02.286Z,1
2023-01-10T04:45:02.106Z,0
2023-01-10T04:50:01.460Z,1
2023-01-10T04:55:01.972Z,1
2023-01-10T05:00:01.784Z,2
2023-01-10T05:05:02.142Z,1
2023-01-10T05:10:01.973Z,1
2023-01-10T05:15:01.343Z,1
2023-01-10T05:20:01.916Z,1
2023-01-10T05:25:02.287Z,2
2023-01-10T05:30:01.627Z,1
2023-01-10T05:35:02.132Z,1
2023-01-10T05:40:01.979Z,1
2023-01-10T05:45:01.364Z,1
2023-01-10T05:50:02.160Z,1
2023-01-10T05:55:01.671Z,1
2023-01-10T06:00:04.851Z,1
2023-01-10T06:05:01.461Z,1
2023-01-10T06:10:01.896Z,2
2023-01-10T06:15:02.380Z,2
2023-01-10T06:20:02.244Z,2
2023-01-10T06:25:02.513Z,2
2023-01-10T06:30:02.255Z,1
2023-01-10T06:35:01.790Z,1
2023-01-10T06:40:02.621Z,1
2023-01-10T06:45:02.430Z,1
2023-01-10T06:50:02.217Z,2
2023-01-10T06:55:01.751Z,1
2023-01-10T07:00:02.284Z,1
2023-01-10T07:05:01.857Z,1
2023-01-10T07:10:02.299Z,1
2023-01-10T07:15:01.687Z,1
2023-01-10T07:20:02.561Z,2
2023-01-10T07:25:02.055Z,1
2023-01-10T07:30:01.859Z,2
2023-01-10T07:35:02.349Z,2
2023-01-10T07:40:01.756Z,1
2023-01-10T07:45:02.571Z,0
2023-01-10T07:50:02.103Z,1
2023-01-10T07:55:01.579Z,2
2023-01-10T08:00:02.420Z,2
2023-01-10T08:05:01.808Z,1
2023-01-10T08:10:02.657Z,9
2023-01-10T08:15:02.219Z,63
2023-01-10T08:20:02.107Z,82
2023-01-10T08:25:01.522Z,43
2023-01-10T08:30:02.322Z,127
2023-01-10T08:35:01.718Z,127
2023-01-10T08:40:02.247Z,147
2023-01-10T08:45:01.643Z,132
2023-01-10T08:50:02.197Z,150
2023-01-10T08:55:01.743Z,239
2023-01-10T09:00:02.358Z,139
2023-01-10T09:05:01.725Z,184
2023-01-10T09:10:02.343Z,4
2023-01-10T09:15:02.170Z,9
2023-01-10T09:20:02.040Z,13
2023-01-10T09:25:01.428Z,9
2023-01-10T09:30:02.218Z,13
2023-01-10T09:35:01.730Z,17
2023-01-10T09:40:02.167Z,6
2023-01-10T09:45:01.553Z,7
2023-01-10T09:50:02.051Z,4
2023-01-10T09:55:01.404Z,16
2023-01-10T10:00:02.222Z,10
2023-01-10T10:05:01.710Z,4
2023-01-10T10:10:02.174Z,2
2023-01-10T10:15:01.982Z,3
2023-01-10T10:20:01.859Z,2
2023-01-10T10:25:02.221Z,2
2023-01-10T10:30:02.013Z,2
2023-01-10T10:35:01.499Z,2
2023-01-10T10:40:01.904Z,2
2023-01-10T10:45:02.713Z,2
2023-01-10T10:50:02.132Z,2
2023-01-10T10:55:01.935Z,3
2023-01-10T11:00:01.753Z,3
2023-01-10T11:05:02.457Z,3
2023-01-10T11:10:02.027Z,18
2023-01-10T11:15:01.469Z,138
2023-01-10T11:20:02.414Z,238
2023-01-10T11:25:01.903Z,259
2023-01-10T11:30:02.279Z,239
2023-01-10T11:35:01.809Z,270
2023-01-10T11:40:02.367Z,281
2023-01-10T11:45:01.885Z,343
2023-01-10T11:50:02.694Z,280
2023-01-10T11:55:02.261Z,285
2023-01-10T12:00:01.754Z,308
2023-01-10T12:05:02.574Z,337
2023-01-10T12:10:02.147Z,7
2023-01-10T12:15:01.692Z,9
2023-01-10T12:20:02.127Z,10
2023-01-10T12:25:01.523Z,141
2023-01-10T12:30:02.019Z,235
2023-01-10T12:35:01.502Z,150
2023-01-10T12:40:02.306Z,160
2023-01-10T12:45:02.133Z,147
2023-01-10T12:50:01.519Z,140
2023-01-10T12:55:02.026Z,141
2023-01-10T13:00:01.829Z,148
2023-01-10T13:05:02.360Z,247
2023-01-10T13:10:02.221Z,7
2023-01-10T13:15:01.786Z,8
2023-01-10T13:20:02.354Z,8
2023-01-10T13:25:01.759Z,7
2023-01-10T13:30:02.563Z,12
2023-01-10T13:35:02.349Z,6
2023-01-10T13:40:02.190Z,8
2023-01-10T13:45:01.743Z,9
2023-01-10T13:50:02.287Z,4
2023-01-10T13:55:02.080Z,5
2023-01-10T14:00:01.457Z,10
2023-01-10T14:05:02.244Z,9
2023-01-10T14:10:03.140Z,4
2023-01-10T14:15:02.131Z,4
2023-01-10T14:20:01.597Z,4
2023-01-10T14:25:02.129Z,9
2023-01-10T14:30:01.578Z,4
2023-01-10T14:35:02.239Z,4
2023-01-10T14:40:02.082Z,3
2023-01-10T14:45:01.631Z,12
2023-01-10T14:50:02.130Z,12
2023-01-10T14:55:01.932Z,11
2023-01-10T15:00:02.381Z,10
2023-01-10T15:05:01.997Z,10
2023-01-10T15:10:01.460Z,8
2023-01-10T15:15:01.851Z,7
2023-01-10T15:20:02.836Z,6
2023-01-10T15:25:02.379Z,6
2023-01-10T15:30:02.329Z,6
2023-01-10T15:35:01.781Z,4
2023-01-10T15:40:02.326Z,6
2023-01-10T15:45:01.740Z,3
2023-01-10T15:50:02.134Z,3
2023-01-10T15:55:01.667Z,3
2023-01-10T16:00:02.073Z,6
2023-01-10T16:05:01.575Z,4
2023-01-10T16:10:02.045Z,4
2023-01-10T16:15:01.453Z,4
2023-01-10T16:20:02.074Z,3
2023-01-10T16:25:01.523Z,3
2023-01-10T16:30:02.063Z,3
2023-01-10T16:35:02.000Z,3
2023-01-10T16:40:01.532Z,2
2023-01-10T16:45:01.918Z,4
2023-01-10T16:50:02.695Z,2
2023-01-10T16:55:02.059Z,2
2023-01-10T17:00:01.605Z,2
2023-01-10T17:05:02.056Z,3
2023-01-10T17:10:01.583Z,12
2023-01-10T17:15:01.974Z,8
2023-01-10T17:20:01.449Z,3
2023-01-10T17:25:01.845Z,14
2023-01-10T17:30:02.204Z,9
2023-01-10T17:35:01.733Z,3
2023-01-10T17:40:02.278Z,14
2023-01-10T17:45:01.812Z,10
2023-01-10T17:50:02.593Z,3
2023-01-10T17:55:01.971Z,15
2023-01-10T18:00:01.369Z,10
2023-01-10T18:05:01.868Z,3
2023-01-10T18:10:02.699Z,15
2023-01-10T18:15:02.590Z,9
2023-01-10T18:20:02.491Z,3
2023-01-10T18:25:01.871Z,3
2023-01-10T18:30:02.653Z,13
2023-01-10T18:35:02.206Z,8
2023-01-10T18:40:02.033Z,3
2023-01-10T18:45:01.753Z,3
2023-01-10T18:50:02.578Z,9
2023-01-10T18:55:02.577Z,8
2023-01-10T19:00:02.533Z,8
2023-01-10T19:05:02.325Z,10
2023-01-10T19:10:01.726Z,10
2023-01-10T19:15:02.539Z,8
2023-01-10T19:20:02.109Z,10
2023-01-10T19:25:01.904Z,10
2023-01-10T19:30:02.407Z,9
2023-01-10T19:35:02.242Z,10
2023-01-10T19:40:01.785Z,5
2023-01-10T19:45:02.295Z,16
2023-01-10T19:50:01.831Z,10
2023-01-10T19:55:02.626Z,4
2023-01-10T20:00:02.187Z,3
2023-01-10T20:05:01.713Z,3
2023-01-10T20:10:02.265Z,10
2023-01-10T20:15:01.683Z,19
2023-01-10T20:20:02.258Z,16
2023-01-10T20:25:01.738Z,7
2023-01-10T20:30:02.536Z,15
2023-01-10T20:35:01.912Z,14
2023-01-10T20:40:01.492Z,5
2023-01-10T20:45:02.057Z,46
2023-01-10T20:50:01.844Z,30
2023-01-10T20:55:02.197Z,11
2023-01-10T21:00:01.746Z,48
2023-01-10T21:05:02.159Z,34
2023-01-10T21:10:01.743Z,5
2023-01-10T21:15:02.161Z,13
2023-01-10T21:20:01.760Z,8
2023-01-10T21:25:02.138Z,4
2023-01-10T21:30:01.956Z,11
2023-01-10T21:35:01.522Z,7
2023-01-10T21:40:01.955Z,9
2023-01-10T21:45:01.347Z,7
2023-01-10T21:50:02.157Z,3
2023-01-10T21:55:01.523Z,6
2023-01-10T22:00:02.063Z,6
2023-01-10T22:05:01.933Z,8
2023-01-10T22:10:01.824Z,3
2023-01-10T22:15:02.204Z,3
2023-01-10T22:20:02.339Z,2
2023-01-10T22:25:01.859Z,3
2023-01-10T22:30:02.234Z,3
2023-01-10T22:35:01.746Z,4
2023-01-10T22:40:02.556Z,3
2023-01-10T22:45:02.349Z,3
2023-01-10T22:50:01.698Z,4
2023-01-10T22:55:02.177Z,6
2023-01-10T23:00:01.939Z,6
2023-01-10T23:05:01.791Z,4
2023-01-10T23:10:02.191Z,3
2023-01-10T23:15:02.075Z,4
2023-01-10T23:20:02.783Z,3
2023-01-10T23:25:02.314Z,3
2023-01-10T23:30:01.882Z,3
2023-01-10T23:35:02.669Z,3
2023-01-10T23:40:02.112Z,2
2023-01-10T23:45:01.524Z,3
2023-01-10T23:50:01.951Z,3
2023-01-10T23:55:01.499Z,2
